De Borgia, Montana
Current Conditions -  °F | °C
As of 9:00 PM on Tuesday 21 Oct 2014 (Local Time) from KMLP Reporting Station
Haze Haze  
Wind Chill: 35°   Ceiling: 800
Heat Index: 35°   Visibility: 5mi
Dew Point: 35°   Wind: 3mph
Humidity: 100%   Direction: NA
Pressure: 30"   Gusts: NA
Location:  47.38°N, 115.34°W
Report Text: KMLP 220300Z AUTO VRB03KT 5SM BR SCT005 BKN008 OVC030 02/02 A3000 RMK AO2 T00170017
Loading
Personal Weather Stations






























Interactive Weather Map
Tropical Storm Tracking
New forecast layout! Learn more

10-Day Weather Forecast

Advertisements
Track Severe Weather on mobile